sensor_id;sensor_type;location;lat;lon;timestamp;P1;durP1;ratioP1;P2;durP2;ratioP2
52033;SDS011;38045;52.988;6.536;2023-05-10T00:01:07;14.27;;;11.55;;
52033;SDS011;38045;52.988;6.536;2023-05-10T00:03:32;14.07;;;12.70;;
52033;SDS011;38045;52.988;6.536;2023-05-10T00:05:58;10.95;;;9.23;;
52033;SDS011;38045;52.988;6.536;2023-05-10T00:08:24;13.45;;;12.05;;
52033;SDS011;38045;52.988;6.536;2023-05-10T00:10:49;13.07;;;11.77;;
52033;SDS011;38045;52.988;6.536;2023-05-10T00:13:15;11.20;;;10.10;;
52033;SDS011;38045;52.988;6.536;2023-05-10T00:15:41;11.43;;;10.23;;
52033;SDS011;38045;52.988;6.536;2023-05-10T00:18:06;20.45;;;11.50;;
52033;SDS011;38045;52.988;6.536;2023-05-10T00:20:32;12.63;;;11.32;;
52033;SDS011;38045;52.988;6.536;2023-05-10T00:22:58;13.60;;;12.25;;
52033;SDS011;38045;52.988;6.536;2023-05-10T00:25:24;12.80;;;10.93;;
52033;SDS011;38045;52.988;6.536;2023-05-10T00:27:49;10.27;;;9.35;;
52033;SDS011;38045;52.988;6.536;2023-05-10T00:30:15;9.73;;;8.30;;
52033;SDS011;38045;52.988;6.536;2023-05-10T00:32:41;12.13;;;10.95;;
52033;SDS011;38045;52.988;6.536;2023-05-10T00:35:08;11.20;;;10.13;;
52033;SDS011;38045;52.988;6.536;2023-05-10T00:37:34;10.70;;;9.60;;
52033;SDS011;38045;52.988;6.536;2023-05-10T00:40:00;10.45;;;9.35;;
52033;SDS011;38045;52.988;6.536;2023-05-10T00:42:25;13.45;;;11.48;;
52033;SDS011;38045;52.988;6.536;2023-05-10T00:44:51;10.95;;;9.85;;
52033;SDS011;38045;52.988;6.536;2023-05-10T00:47:17;11.02;;;9.93;;
52033;SDS011;38045;52.988;6.536;2023-05-10T00:49:43;10.93;;;9.48;;
52033;SDS011;38045;52.988;6.536;2023-05-10T00:52:09;12.30;;;11.02;;
52033;SDS011;38045;52.988;6.536;2023-05-10T00:54:35;13.18;;;10.90;;
52033;SDS011;38045;52.988;6.536;2023-05-10T00:57:01;11.00;;;9.90;;
52033;SDS011;38045;52.988;6.536;2023-05-10T00:59:27;13.32;;;10.88;;
52033;SDS011;38045;52.988;6.536;2023-05-10T01:01:53;9.20;;;8.30;;
52033;SDS011;38045;52.988;6.536;2023-05-10T01:04:19;12.30;;;11.10;;
52033;SDS011;38045;52.988;6.536;2023-05-10T01:06:50;9.95;;;8.95;;
52033;SDS011;38045;52.988;6.536;2023-05-10T01:09:16;14.82;;;10.93;;
52033;SDS011;38045;52.988;6.536;2023-05-10T01:11:43;13.30;;;10.80;;
52033;SDS011;38045;52.988;6.536;2023-05-10T01:14:08;11.10;;;9.95;;
52033;SDS011;38045;52.988;6.536;2023-05-10T01:16:36;10.80;;;9.80;;
52033;SDS011;38045;52.988;6.536;2023-05-10T01:19:04;10.13;;;9.07;;
52033;SDS011;38045;52.988;6.536;2023-05-10T01:21:48;11.48;;;9.18;;
52033;SDS011;38045;52.988;6.536;2023-05-10T01:24:44;9.95;;;8.95;;
52033;SDS011;38045;52.988;6.536;2023-05-10T01:30:17;11.73;;;10.63;;
52033;SDS011;38045;52.988;6.536;2023-05-10T01:41:22;26.42;;;22.30;;
52033;SDS011;38045;52.988;6.536;2023-05-10T01:43:57;26.02;;;20.20;;
52033;SDS011;38045;52.988;6.536;2023-05-10T01:46:41;21.27;;;18.98;;
52033;SDS011;38045;52.988;6.536;2023-05-10T01:49:21;24.35;;;20.15;;
52033;SDS011;38045;52.988;6.536;2023-05-10T01:51:51;25.92;;;19.98;;
52033;SDS011;38045;52.988;6.536;2023-05-10T01:54:20;17.88;;;13.88;;
52033;SDS011;38045;52.988;6.536;2023-05-10T01:56:52;18.13;;;15.60;;
52033;SDS011;38045;52.988;6.536;2023-05-10T01:59:24;17.25;;;14.52;;
52033;SDS011;38045;52.988;6.536;2023-05-10T02:01:57;13.50;;;12.00;;
52033;SDS011;38045;52.988;6.536;2023-05-10T02:04:24;16.88;;;13.35;;
52033;SDS011;38045;52.988;6.536;2023-05-10T02:06:52;13.75;;;12.25;;
52033;SDS011;38045;52.988;6.536;2023-05-10T02:09:19;15.18;;;13.43;;
52033;SDS011;38045;52.988;6.536;2023-05-10T02:11:46;18.05;;;13.65;;
52033;SDS011;38045;52.988;6.536;2023-05-10T02:14:14;13.43;;;12.00;;
52033;SDS011;38045;52.988;6.536;2023-05-10T02:16:41;15.60;;;12.95;;
52033;SDS011;38045;52.988;6.536;2023-05-10T02:19:09;15.15;;;13.55;;
52033;SDS011;38045;52.988;6.536;2023-05-10T02:21:37;13.05;;;11.73;;
52033;SDS011;38045;52.988;6.536;2023-05-10T02:24:04;16.95;;;14.00;;
52033;SDS011;38045;52.988;6.536;2023-05-10T02:26:31;18.88;;;13.70;;
52033;SDS011;38045;52.988;6.536;2023-05-10T02:28:58;18.05;;;14.70;;
52033;SDS011;38045;52.988;6.536;2023-05-10T02:31:28;16.60;;;13.90;;
52033;SDS011;38045;52.988;6.536;2023-05-10T02:33:55;18.70;;;14.80;;
52033;SDS011;38045;52.988;6.536;2023-05-10T02:36:23;16.95;;;12.50;;
52033;SDS011;38045;52.988;6.536;2023-05-10T02:38:49;12.68;;;9.38;;
52033;SDS011;38045;52.988;6.536;2023-05-10T02:41:18;16.65;;;14.07;;
52033;SDS011;38045;52.988;6.536;2023-05-10T02:43:48;18.67;;;12.52;;
52033;SDS011;38045;52.988;6.536;2023-05-10T02:46:16;14.43;;;12.27;;
52033;SDS011;38045;52.988;6.536;2023-05-10T02:48:41;17.48;;;11.98;;
52033;SDS011;38045;52.988;6.536;2023-05-10T02:51:07;14.02;;;12.40;;
52033;SDS011;38045;52.988;6.536;2023-05-10T02:53:35;18.10;;;14.40;;
52033;SDS011;38045;52.988;6.536;2023-05-10T02:56:10;17.55;;;14.45;;
52033;SDS011;38045;52.988;6.536;2023-05-10T02:58:39;12.18;;;10.75;;
52033;SDS011;38045;52.988;6.536;2023-05-10T03:01:05;15.75;;;14.02;;
52033;SDS011;38045;52.988;6.536;2023-05-10T03:03:32;19.35;;;14.73;;
52033;SDS011;38045;52.988;6.536;2023-05-10T03:05:58;18.60;;;12.90;;
52033;SDS011;38045;52.988;6.536;2023-05-10T03:08:24;18.15;;;14.55;;
52033;SDS011;38045;52.988;6.536;2023-05-10T03:10:55;15.68;;;13.52;;
52033;SDS011;38045;52.988;6.536;2023-05-10T03:13:29;16.70;;;13.27;;
52033;SDS011;38045;52.988;6.536;2023-05-10T03:16:15;18.65;;;14.15;;
52033;SDS011;38045;52.988;6.536;2023-05-10T03:18:58;19.15;;;12.95;;
52033;SDS011;38045;52.988;6.536;2023-05-10T03:21:31;12.90;;;11.40;;
52033;SDS011;38045;52.988;6.536;2023-05-10T03:24:07;16.08;;;14.38;;
52033;SDS011;38045;52.988;6.536;2023-05-10T03:26:33;17.42;;;14.07;;
52033;SDS011;38045;52.988;6.536;2023-05-10T03:29:00;11.13;;;9.85;;
52033;SDS011;38045;52.988;6.536;2023-05-10T03:31:28;15.52;;;13.80;;
52033;SDS011;38045;52.988;6.536;2023-05-10T03:33:53;15.13;;;11.02;;
52033;SDS011;38045;52.988;6.536;2023-05-10T03:36:19;15.60;;;13.98;;
52033;SDS011;38045;52.988;6.536;2023-05-10T03:38:45;15.07;;;13.02;;
52033;SDS011;38045;52.988;6.536;2023-05-10T03:41:10;13.02;;;10.57;;
52033;SDS011;38045;52.988;6.536;2023-05-10T03:43:36;18.80;;;12.88;;
52033;SDS011;38045;52.988;6.536;2023-05-10T03:46:04;14.02;;;10.93;;
52033;SDS011;38045;52.988;6.536;2023-05-10T03:48:31;10.85;;;9.75;;
52033;SDS011;38045;52.988;6.536;2023-05-10T03:50:57;14.13;;;10.77;;
52033;SDS011;38045;52.988;6.536;2023-05-10T03:53:23;12.45;;;9.63;;
52033;SDS011;38045;52.988;6.536;2023-05-10T03:55:48;9.23;;;8.32;;
52033;SDS011;38045;52.988;6.536;2023-05-10T03:58:14;12.65;;;10.38;;
52033;SDS011;38045;52.988;6.536;2023-05-10T04:00:40;11.00;;;9.75;;
52033;SDS011;38045;52.988;6.536;2023-05-10T04:03:10;9.80;;;8.75;;
52033;SDS011;38045;52.988;6.536;2023-05-10T04:05:36;8.48;;;6.88;;
52033;SDS011;38045;52.988;6.536;2023-05-10T04:08:02;13.63;;;9.15;;
52033;SDS011;38045;52.988;6.536;2023-05-10T04:10:28;10.75;;;8.75;;
52033;SDS011;38045;52.988;6.536;2023-05-10T04:12:54;10.65;;;9.55;;
52033;SDS011;38045;52.988;6.536;2023-05-10T04:15:20;11.18;;;9.00;;
52033;SDS011;38045;52.988;6.536;2023-05-10T04:17:45;10.68;;;9.15;;
52033;SDS011;38045;52.988;6.536;2023-05-10T04:20:11;9.55;;;8.48;;
52033;SDS011;38045;52.988;6.536;2023-05-10T04:22:37;12.05;;;9.75;;
52033;SDS011;38045;52.988;6.536;2023-05-10T04:25:03;8.40;;;7.60;;
52033;SDS011;38045;52.988;6.536;2023-05-10T04:27:29;9.32;;;8.38;;
52033;SDS011;38045;52.988;6.536;2023-05-10T04:29:56;9.00;;;8.05;;
52033;SDS011;38045;52.988;6.536;2023-05-10T04:32:21;13.20;;;11.88;;
52033;SDS011;38045;52.988;6.536;2023-05-10T04:34:47;5.30;;;4.80;;
52033;SDS011;38045;52.988;6.536;2023-05-10T04:37:13;8.85;;;7.95;;
52033;SDS011;38045;52.988;6.536;2023-05-10T04:39:38;9.80;;;7.30;;
52033;SDS011;38045;52.988;6.536;2023-05-10T04:42:04;13.50;;;8.98;;
52033;SDS011;38045;52.988;6.536;2023-05-10T04:44:30;10.93;;;9.70;;
52033;SDS011;38045;52.988;6.536;2023-05-10T04:46:56;10.27;;;8.27;;
52033;SDS011;38045;52.988;6.536;2023-05-10T04:49:22;11.70;;;10.48;;
52033;SDS011;38045;52.988;6.536;2023-05-10T04:51:48;9.18;;;8.27;;
52033;SDS011;38045;52.988;6.536;2023-05-10T04:54:13;9.43;;;8.60;;
52033;SDS011;38045;52.988;6.536;2023-05-10T04:56:39;8.82;;;8.02;;
52033;SDS011;38045;52.988;6.536;2023-05-10T04:59:05;8.38;;;7.68;;
52033;SDS011;38045;52.988;6.536;2023-05-10T05:01:31;12.93;;;7.72;;
52033;SDS011;38045;52.988;6.536;2023-05-10T05:03:57;6.63;;;6.03;;
52033;SDS011;38045;52.988;6.536;2023-05-10T05:06:23;8.13;;;7.32;;
52033;SDS011;38045;52.988;6.536;2023-05-10T05:08:50;7.10;;;6.07;;
52033;SDS011;38045;52.988;6.536;2023-05-10T05:11:15;4.85;;;4.25;;
52033;SDS011;38045;52.988;6.536;2023-05-10T05:13:41;3.35;;;3.08;;
52033;SDS011;38045;52.988;6.536;2023-05-10T05:16:07;6.88;;;6.28;;
52033;SDS011;38045;52.988;6.536;2023-05-10T05:18:33;8.55;;;7.75;;
52033;SDS011;38045;52.988;6.536;2023-05-10T05:20:58;5.05;;;4.60;;
52033;SDS011;38045;52.988;6.536;2023-05-10T05:23:24;7.00;;;6.40;;
52033;SDS011;38045;52.988;6.536;2023-05-10T05:25:51;6.45;;;5.90;;
52033;SDS011;38045;52.988;6.536;2023-05-10T05:28:17;8.23;;;7.43;;
52033;SDS011;38045;52.988;6.536;2023-05-10T05:30:43;8.57;;;7.20;;
52033;SDS011;38045;52.988;6.536;2023-05-10T05:33:09;8.43;;;7.63;;
52033;SDS011;38045;52.988;6.536;2023-05-10T05:35:34;7.88;;;7.18;;
52033;SDS011;38045;52.988;6.536;2023-05-10T05:38:00;5.57;;;5.07;;
52033;SDS011;38045;52.988;6.536;2023-05-10T05:40:26;6.47;;;5.88;;
52033;SDS011;38045;52.988;6.536;2023-05-10T05:42:51;8.07;;;5.90;;
52033;SDS011;38045;52.988;6.536;2023-05-10T05:45:17;6.15;;;5.65;;
52033;SDS011;38045;52.988;6.536;2023-05-10T05:47:42;6.95;;;6.25;;
52033;SDS011;38045;52.988;6.536;2023-05-10T05:50:08;6.70;;;6.00;;
52033;SDS011;38045;52.988;6.536;2023-05-10T05:52:34;7.20;;;6.60;;
52033;SDS011;38045;52.988;6.536;2023-05-10T05:55:00;6.25;;;5.72;;
52033;SDS011;38045;52.988;6.536;2023-05-10T05:57:26;5.03;;;4.57;;
52033;SDS011;38045;52.988;6.536;2023-05-10T05:59:52;6.00;;;3.30;;
52033;SDS011;38045;52.988;6.536;2023-05-10T06:02:18;3.22;;;2.95;;
52033;SDS011;38045;52.988;6.536;2023-05-10T06:04:43;4.32;;;3.95;;
52033;SDS011;38045;52.988;6.536;2023-05-10T06:07:09;3.28;;;3.05;;
52033;SDS011;38045;52.988;6.536;2023-05-10T06:09:34;4.05;;;3.75;;
52033;SDS011;38045;52.988;6.536;2023-05-10T06:12:00;3.67;;;3.47;;
52033;SDS011;38045;52.988;6.536;2023-05-10T06:14:26;3.92;;;3.63;;
52033;SDS011;38045;52.988;6.536;2023-05-10T06:16:52;3.72;;;3.45;;
52033;SDS011;38045;52.988;6.536;2023-05-10T06:19:18;7.35;;;4.10;;
52033;SDS011;38045;52.988;6.536;2023-05-10T06:21:43;5.63;;;4.57;;
52033;SDS011;38045;52.988;6.536;2023-05-10T06:24:09;3.35;;;3.08;;
52033;SDS011;38045;52.988;6.536;2023-05-10T06:26:35;3.22;;;2.95;;
52033;SDS011;38045;52.988;6.536;2023-05-10T06:29:01;4.55;;;3.40;;
52033;SDS011;38045;52.988;6.536;2023-05-10T06:31:27;1.27;;;1.17;;
52033;SDS011;38045;52.988;6.536;2023-05-10T06:33:53;3.75;;;3.45;;
52033;SDS011;38045;52.988;6.536;2023-05-10T06:36:18;3.00;;;2.80;;
52033;SDS011;38045;52.988;6.536;2023-05-10T06:38:44;2.45;;;2.25;;
52033;SDS011;38045;52.988;6.536;2023-05-10T06:41:09;2.78;;;2.58;;
52033;SDS011;38045;52.988;6.536;2023-05-10T06:43:35;3.28;;;3.00;;
52033;SDS011;38045;52.988;6.536;2023-05-10T06:46:05;2.83;;;2.60;;
52033;SDS011;38045;52.988;6.536;2023-05-10T06:48:30;2.25;;;2.05;;
52033;SDS011;38045;52.988;6.536;2023-05-10T06:50:56;2.97;;;2.03;;
52033;SDS011;38045;52.988;6.536;2023-05-10T06:53:21;2.03;;;1.90;;
52033;SDS011;38045;52.988;6.536;2023-05-10T06:55:48;2.55;;;2.30;;
52033;SDS011;38045;52.988;6.536;2023-05-10T06:58:14;0.98;;;0.98;;
52033;SDS011;38045;52.988;6.536;2023-05-10T07:00:40;0.47;;;0.47;;
52033;SDS011;38045;52.988;6.536;2023-05-10T07:03:09;0.90;;;0.90;;
52033;SDS011;38045;52.988;6.536;2023-05-10T07:05:35;0.50;;;0.50;;
52033;SDS011;38045;52.988;6.536;2023-05-10T07:08:01;0.60;;;0.60;;
52033;SDS011;38045;52.988;6.536;2023-05-10T07:10:27;1.05;;;0.73;;
52033;SDS011;38045;52.988;6.536;2023-05-10T07:12:52;1.27;;;1.20;;
52033;SDS011;38045;52.988;6.536;2023-05-10T07:15:18;0.40;;;0.40;;
52033;SDS011;38045;52.988;6.536;2023-05-10T07:17:44;0.68;;;0.68;;
52033;SDS011;38045;52.988;6.536;2023-05-10T07:20:10;1.02;;;1.00;;
52033;SDS011;38045;52.988;6.536;2023-05-10T07:22:36;1.70;;;0.95;;
52033;SDS011;38045;52.988;6.536;2023-05-10T07:25:01;1.60;;;1.50;;
52033;SDS011;38045;52.988;6.536;2023-05-10T07:27:27;1.00;;;1.00;;
52033;SDS011;38045;52.988;6.536;2023-05-10T07:29:53;2.65;;;1.40;;
52033;SDS011;38045;52.988;6.536;2023-05-10T07:32:19;1.77;;;1.67;;
52033;SDS011;38045;52.988;6.536;2023-05-10T07:34:45;1.73;;;1.63;;
52033;SDS011;38045;52.988;6.536;2023-05-10T07:37:11;1.80;;;1.48;;
52033;SDS011;38045;52.988;6.536;2023-05-10T07:39:37;1.40;;;1.30;;
52033;SDS011;38045;52.988;6.536;2023-05-10T07:42:02;1.45;;;1.42;;
52033;SDS011;38045;52.988;6.536;2023-05-10T07:44:28;2.05;;;1.85;;
52033;SDS011;38045;52.988;6.536;2023-05-10T07:46:54;2.28;;;2.10;;
52033;SDS011;38045;52.988;6.536;2023-05-10T07:49:20;1.73;;;1.63;;
52033;SDS011;38045;52.988;6.536;2023-05-10T07:51:46;2.53;;;2.08;;
52033;SDS011;38045;52.988;6.536;2023-05-10T07:54:12;2.85;;;2.65;;
52033;SDS011;38045;52.988;6.536;2023-05-10T07:56:39;2.00;;;1.90;;
52033;SDS011;38045;52.988;6.536;2023-05-10T07:59:09;2.40;;;2.20;;
52033;SDS011;38045;52.988;6.536;2023-05-10T08:01:35;2.22;;;2.13;;
52033;SDS011;38045;52.988;6.536;2023-05-10T08:04:01;2.25;;;1.90;;
52033;SDS011;38045;52.988;6.536;2023-05-10T08:06:27;1.25;;;1.15;;
52033;SDS011;38045;52.988;6.536;2023-05-10T08:08:54;3.92;;;1.67;;
52033;SDS011;38045;52.988;6.536;2023-05-10T08:11:21;2.90;;;2.67;;
52033;SDS011;38045;52.988;6.536;2023-05-10T08:13:48;1.90;;;1.80;;
52033;SDS011;38045;52.988;6.536;2023-05-10T08:16:15;2.70;;;2.50;;
52033;SDS011;38045;52.988;6.536;2023-05-10T08:18:41;4.65;;;3.38;;
52033;SDS011;38045;52.988;6.536;2023-05-10T08:21:08;2.78;;;2.58;;
52033;SDS011;38045;52.988;6.536;2023-05-10T08:23:35;4.97;;;4.00;;
52033;SDS011;38045;52.988;6.536;2023-05-10T08:26:01;3.08;;;2.88;;
52033;SDS011;38045;52.988;6.536;2023-05-10T08:28:27;3.80;;;2.97;;
52033;SDS011;38045;52.988;6.536;2023-05-10T08:30:52;3.08;;;2.85;;
52033;SDS011;38045;52.988;6.536;2023-05-10T08:33:18;3.75;;;3.45;;
52033;SDS011;38045;52.988;6.536;2023-05-10T08:35:44;5.22;;;4.82;;
52033;SDS011;38045;52.988;6.536;2023-05-10T08:38:09;5.60;;;3.70;;
52033;SDS011;38045;52.988;6.536;2023-05-10T08:40:36;1.95;;;1.85;;
52033;SDS011;38045;52.988;6.536;2023-05-10T08:43:05;4.30;;;4.00;;
52033;SDS011;38045;52.988;6.536;2023-05-10T08:45:36;3.38;;;3.08;;
52033;SDS011;38045;52.988;6.536;2023-05-10T08:48:02;3.00;;;2.80;;
52033;SDS011;38045;52.988;6.536;2023-05-10T08:50:30;3.10;;;2.85;;
52033;SDS011;38045;52.988;6.536;2023-05-10T08:52:57;5.15;;;3.30;;
52033;SDS011;38045;52.988;6.536;2023-05-10T08:57:52;2.70;;;2.50;;
52033;SDS011;38045;52.988;6.536;2023-05-10T09:00:18;4.03;;;3.33;;
52033;SDS011;38045;52.988;6.536;2023-05-10T09:02:44;4.63;;;3.30;;
52033;SDS011;38045;52.988;6.536;2023-05-10T09:05:13;3.53;;;3.23;;
52033;SDS011;38045;52.988;6.536;2023-05-10T09:07:40;3.55;;;3.20;;
52033;SDS011;38045;52.988;6.536;2023-05-10T09:10:06;4.30;;;3.88;;
52033;SDS011;38045;52.988;6.536;2023-05-10T09:12:33;4.03;;;3.72;;
52033;SDS011;38045;52.988;6.536;2023-05-10T09:15:00;4.80;;;4.30;;
52033;SDS011;38045;52.988;6.536;2023-05-10T09:17:26;6.28;;;5.43;;
52033;SDS011;38045;52.988;6.536;2023-05-10T09:19:57;7.40;;;5.63;;
52033;SDS011;38045;52.988;6.536;2023-05-10T09:22:27;7.50;;;5.53;;
52033;SDS011;38045;52.988;6.536;2023-05-10T09:25:12;7.38;;;4.93;;
52033;SDS011;38045;52.988;6.536;2023-05-10T09:27:40;5.70;;;5.15;;
52033;SDS011;38045;52.988;6.536;2023-05-10T09:30:10;6.18;;;5.63;;
52033;SDS011;38045;52.988;6.536;2023-05-10T09:32:44;6.07;;;5.47;;
52033;SDS011;38045;52.988;6.536;2023-05-10T09:35:11;5.13;;;4.60;;
52033;SDS011;38045;52.988;6.536;2023-05-10T09:37:43;6.20;;;5.60;;
52033;SDS011;38045;52.988;6.536;2023-05-10T09:40:11;6.20;;;5.60;;
52033;SDS011;38045;52.988;6.536;2023-05-10T09:42:38;6.40;;;5.75;;
52033;SDS011;38045;52.988;6.536;2023-05-10T09:45:05;7.15;;;5.88;;
52033;SDS011;38045;52.988;6.536;2023-05-10T09:47:32;7.07;;;5.78;;
52033;SDS011;38045;52.988;6.536;2023-05-10T09:49:59;7.03;;;5.20;;
52033;SDS011;38045;52.988;6.536;2023-05-10T09:52:33;4.47;;;4.07;;
52033;SDS011;38045;52.988;6.536;2023-05-10T09:55:18;6.82;;;5.93;;
52033;SDS011;38045;52.988;6.536;2023-05-10T09:57:48;7.90;;;5.60;;
52033;SDS011;38045;52.988;6.536;2023-05-10T10:00:23;6.95;;;6.35;;
52033;SDS011;38045;52.988;6.536;2023-05-10T10:02:55;5.55;;;4.75;;
52033;SDS011;38045;52.988;6.536;2023-05-10T10:05:27;8.23;;;7.32;;
52033;SDS011;38045;52.988;6.536;2023-05-10T10:08:02;8.30;;;5.25;;
52033;SDS011;38045;52.988;6.536;2023-05-10T10:10:28;6.10;;;5.50;;
52033;SDS011;38045;52.988;6.536;2023-05-10T10:12:55;7.28;;;5.95;;
52033;SDS011;38045;52.988;6.536;2023-05-10T10:15:21;5.63;;;5.03;;
52033;SDS011;38045;52.988;6.536;2023-05-10T10:17:48;5.90;;;5.30;;
52033;SDS011;38045;52.988;6.536;2023-05-10T10:20:14;7.53;;;6.80;;
52033;SDS011;38045;52.988;6.536;2023-05-10T10:22:41;5.60;;;4.85;;
52033;SDS011;38045;52.988;6.536;2023-05-10T10:25:09;7.25;;;6.13;;
52033;SDS011;38045;52.988;6.536;2023-05-10T10:27:43;6.68;;;5.97;;
52033;SDS011;38045;52.988;6.536;2023-05-10T10:35:58;7.88;;;7.07;;
52033;SDS011;38045;52.988;6.536;2023-05-10T10:38:24;12.27;;;6.38;;
52033;SDS011;38045;52.988;6.536;2023-05-10T10:41:03;6.65;;;5.82;;
52033;SDS011;38045;52.988;6.536;2023-05-10T10:43:35;8.07;;;6.53;;
52033;SDS011;38045;52.988;6.536;2023-05-10T10:49:25;15.60;;;5.50;;
52033;SDS011;38045;52.988;6.536;2023-05-10T10:51:38;7.05;;;6.28;;
52033;SDS011;38045;52.988;6.536;2023-05-10T10:54:11;11.20;;;6.82;;
52033;SDS011;38045;52.988;6.536;2023-05-10T10:56:36;6.10;;;4.80;;
52033;SDS011;38045;52.988;6.536;2023-05-10T10:59:02;9.23;;;5.88;;
52033;SDS011;38045;52.988;6.536;2023-05-10T11:01:32;8.43;;;5.43;;
52033;SDS011;38045;52.988;6.536;2023-05-10T11:06:28;7.80;;;6.38;;
52033;SDS011;38045;52.988;6.536;2023-05-10T11:08:59;6.07;;;5.50;;
52033;SDS011;38045;52.988;6.536;2023-05-10T11:11:30;8.20;;;5.55;;
52033;SDS011;38045;52.988;6.536;2023-05-10T11:13:56;8.30;;;6.32;;
52033;SDS011;38045;52.988;6.536;2023-05-10T11:16:29;8.68;;;6.93;;
52033;SDS011;38045;52.988;6.536;2023-05-10T11:19:13;7.80;;;7.03;;
52033;SDS011;38045;52.988;6.536;2023-05-10T11:21:47;6.07;;;5.47;;
52033;SDS011;38045;52.988;6.536;2023-05-10T11:24:21;7.28;;;5.63;;
52033;SDS011;38045;52.988;6.536;2023-05-10T11:26:50;6.97;;;5.82;;
52033;SDS011;38045;52.988;6.536;2023-05-10T11:29:16;6.35;;;5.75;;
52033;SDS011;38045;52.988;6.536;2023-05-10T11:31:43;7.70;;;6.97;;
52033;SDS011;38045;52.988;6.536;2023-05-10T11:34:10;6.00;;;5.40;;
52033;SDS011;38045;52.988;6.536;2023-05-10T11:36:36;7.28;;;5.93;;
52033;SDS011;38045;52.988;6.536;2023-05-10T11:39:02;7.20;;;6.28;;
52033;SDS011;38045;52.988;6.536;2023-05-10T11:41:29;8.02;;;5.97;;
52033;SDS011;38045;52.988;6.536;2023-05-10T11:43:55;7.50;;;5.85;;
52033;SDS011;38045;52.988;6.536;2023-05-10T11:46:23;8.93;;;6.07;;
52033;SDS011;38045;52.988;6.536;2023-05-10T11:48:50;6.47;;;5.78;;
52033;SDS011;38045;52.988;6.536;2023-05-10T11:51:21;7.82;;;6.15;;
52033;SDS011;38045;52.988;6.536;2023-05-10T11:53:48;6.45;;;5.82;;
52033;SDS011;38045;52.988;6.536;2023-05-10T11:56:15;7.38;;;6.18;;
52033;SDS011;38045;52.988;6.536;2023-05-10T11:58:41;6.20;;;5.25;;
52033;SDS011;38045;52.988;6.536;2023-05-10T12:01:07;7.43;;;6.07;;
52033;SDS011;38045;52.988;6.536;2023-05-10T12:03:34;6.50;;;5.50;;
52033;SDS011;38045;52.988;6.536;2023-05-10T12:06:00;6.20;;;5.60;;
52033;SDS011;38045;52.988;6.536;2023-05-10T12:08:27;6.65;;;5.97;;
52033;SDS011;38045;52.988;6.536;2023-05-10T12:11:04;6.00;;;5.28;;
52033;SDS011;38045;52.988;6.536;2023-05-10T12:13:31;8.98;;;6.35;;
52033;SDS011;38045;52.988;6.536;2023-05-10T12:15:57;9.27;;;6.05;;
52033;SDS011;38045;52.988;6.536;2023-05-10T12:18:23;7.15;;;6.10;;
52033;SDS011;38045;52.988;6.536;2023-05-10T12:20:51;6.05;;;5.45;;
52033;SDS011;38045;52.988;6.536;2023-05-10T12:23:18;8.05;;;6.50;;
52033;SDS011;38045;52.988;6.536;2023-05-10T12:25:45;6.57;;;5.97;;
52033;SDS011;38045;52.988;6.536;2023-05-10T12:28:11;7.57;;;6.03;;
52033;SDS011;38045;52.988;6.536;2023-05-10T12:30:37;6.45;;;5.85;;
52033;SDS011;38045;52.988;6.536;2023-05-10T12:35:43;8.38;;;6.20;;
52033;SDS011;38045;52.988;6.536;2023-05-10T12:38:35;6.40;;;5.78;;
52033;SDS011;38045;52.988;6.536;2023-05-10T12:41:04;7.50;;;6.22;;
52033;SDS011;38045;52.988;6.536;2023-05-10T12:43:31;8.57;;;7.68;;
52033;SDS011;38045;52.988;6.536;2023-05-10T12:45:58;7.45;;;5.60;;
52033;SDS011;38045;52.988;6.536;2023-05-10T12:48:23;6.82;;;5.63;;
52033;SDS011;38045;52.988;6.536;2023-05-10T12:50:49;7.07;;;5.55;;
52033;SDS011;38045;52.988;6.536;2023-05-10T12:53:15;8.07;;;6.93;;
52033;SDS011;38045;52.988;6.536;2023-05-10T12:55:41;8.05;;;6.18;;
52033;SDS011;38045;52.988;6.536;2023-05-10T12:58:08;6.25;;;5.47;;
52033;SDS011;38045;52.988;6.536;2023-05-10T13:00:33;10.25;;;6.65;;
52033;SDS011;38045;52.988;6.536;2023-05-10T13:02:59;9.57;;;5.88;;
52033;SDS011;38045;52.988;6.536;2023-05-10T13:05:25;11.35;;;6.35;;
52033;SDS011;38045;52.988;6.536;2023-05-10T13:07:50;8.82;;;4.47;;
52033;SDS011;38045;52.988;6.536;2023-05-10T13:10:16;8.32;;;6.38;;
52033;SDS011;38045;52.988;6.536;2023-05-10T13:12:42;10.15;;;7.53;;
52033;SDS011;38045;52.988;6.536;2023-05-10T13:15:07;9.77;;;7.43;;
52033;SDS011;38045;52.988;6.536;2023-05-10T13:17:33;9.00;;;7.10;;
52033;SDS011;38045;52.988;6.536;2023-05-10T13:19:59;7.38;;;6.47;;
52033;SDS011;38045;52.988;6.536;2023-05-10T13:22:24;7.65;;;6.65;;
52033;SDS011;38045;52.988;6.536;2023-05-10T13:24:50;10.27;;;7.57;;
52033;SDS011;38045;52.988;6.536;2023-05-10T13:27:15;10.43;;;7.90;;
52033;SDS011;38045;52.988;6.536;2023-05-10T13:29:41;8.18;;;7.38;;
52033;SDS011;38045;52.988;6.536;2023-05-10T13:32:07;8.95;;;7.50;;
52033;SDS011;38045;52.988;6.536;2023-05-10T13:34:32;12.32;;;8.32;;
52033;SDS011;38045;52.988;6.536;2023-05-10T13:36:58;12.48;;;8.13;;
52033;SDS011;38045;52.988;6.536;2023-05-10T13:39:23;6.90;;;5.43;;
52033;SDS011;38045;52.988;6.536;2023-05-10T13:41:49;12.43;;;8.27;;
52033;SDS011;38045;52.988;6.536;2023-05-10T13:44:15;8.15;;;4.63;;
52033;SDS011;38045;52.988;6.536;2023-05-10T13:46:41;7.40;;;6.20;;
52033;SDS011;38045;52.988;6.536;2023-05-10T13:49:08;7.07;;;6.30;;
52033;SDS011;38045;52.988;6.536;2023-05-10T13:51:34;10.13;;;7.88;;
52033;SDS011;38045;52.988;6.536;2023-05-10T13:54:00;8.93;;;7.60;;
52033;SDS011;38045;52.988;6.536;2023-05-10T13:56:27;8.75;;;7.88;;
52033;SDS011;38045;52.988;6.536;2023-05-10T13:58:52;17.13;;;9.52;;
52033;SDS011;38045;52.988;6.536;2023-05-10T14:01:18;8.40;;;7.38;;
52033;SDS011;38045;52.988;6.536;2023-05-10T14:03:44;10.40;;;7.95;;
52033;SDS011;38045;52.988;6.536;2023-05-10T14:06:09;10.35;;;8.95;;
52033;SDS011;38045;52.988;6.536;2023-05-10T14:08:35;10.73;;;8.88;;
52033;SDS011;38045;52.988;6.536;2023-05-10T14:11:01;11.13;;;8.55;;
52033;SDS011;38045;52.988;6.536;2023-05-10T14:13:27;8.90;;;7.80;;
52033;SDS011;38045;52.988;6.536;2023-05-10T14:15:53;7.90;;;7.05;;
52033;SDS011;38045;52.988;6.536;2023-05-10T14:18:19;7.75;;;6.70;;
52033;SDS011;38045;52.988;6.536;2023-05-10T14:20:45;10.10;;;8.63;;
52033;SDS011;38045;52.988;6.536;2023-05-10T14:23:10;7.63;;;6.47;;
52033;SDS011;38045;52.988;6.536;2023-05-10T14:25:37;9.80;;;7.65;;
52033;SDS011;38045;52.988;6.536;2023-05-10T14:28:05;9.70;;;8.00;;
52033;SDS011;38045;52.988;6.536;2023-05-10T14:30:31;10.57;;;8.27;;
52033;SDS011;38045;52.988;6.536;2023-05-10T14:32:56;11.10;;;8.45;;
52033;SDS011;38045;52.988;6.536;2023-05-10T14:35:23;11.57;;;7.30;;
52033;SDS011;38045;52.988;6.536;2023-05-10T14:37:49;7.82;;;6.75;;
52033;SDS011;38045;52.988;6.536;2023-05-10T14:40:14;7.65;;;6.43;;
52033;SDS011;38045;52.988;6.536;2023-05-10T14:42:41;9.43;;;7.70;;
52033;SDS011;38045;52.988;6.536;2023-05-10T14:45:07;11.20;;;8.48;;
52033;SDS011;38045;52.988;6.536;2023-05-10T14:47:33;12.30;;;5.30;;
52033;SDS011;38045;52.988;6.536;2023-05-10T14:49:59;9.65;;;6.80;;
52033;SDS011;38045;52.988;6.536;2023-05-10T14:52:25;7.13;;;4.97;;
52033;SDS011;38045;52.988;6.536;2023-05-10T14:54:50;5.32;;;3.97;;
52033;SDS011;38045;52.988;6.536;2023-05-10T14:57:16;5.90;;;5.30;;
52033;SDS011;38045;52.988;6.536;2023-05-10T14:59:42;5.32;;;4.65;;
52033;SDS011;38045;52.988;6.536;2023-05-10T15:02:07;7.72;;;3.95;;
52033;SDS011;38045;52.988;6.536;2023-05-10T15:04:33;8.43;;;4.38;;
52033;SDS011;38045;52.988;6.536;2023-05-10T15:06:58;6.03;;;5.45;;
52033;SDS011;38045;52.988;6.536;2023-05-10T15:09:25;5.47;;;4.90;;